Seabourn Legend — C6FR6 — position and weather

sailwx.info

Track history (hours):
 
Tides and Currents Weather Stations Pressure Air Temp Water Temp Dewpoint Dewpoint Depression Visibility Wind Speed Wind Dir Waves Ship Positions

Seabourn Legend

Operator: Cunard Seabourn

Last reported at 2017-May-26 00:26 UTC. Time now 2017-May-26 16:46 UTC.
Position N 36°58' E 023°22'.

Length 135 m; draft 5.6 m.

Type: Passenger vessel. MMSI: 311085000.

Date/timePositionNaut miles runAvg speedWind from/ knotsBaromVisibWave heightAir tempDewpointWater temp
2017-May-26 00:26N 36°58' E 023°22'3 6.5
2017-May-26 00:00N 37°00' E 023°24'13 6.7
2017-May-25 22:03N 37°06' E 023°39'0 6.8
2017-May-25 22:00N 37°06' E 023°39'3 6.9
2017-May-25 21:30N 37°09' E 023°42'3 6.7
2017-May-25 21:00N 37°11' E 023°45'3 7.0
2017-May-25 20:30N 37°14' E 023°48'6 6.9
2017-May-25 19:41N 37°20' E 023°48'2 7.4
2017-May-25 19:27N 37°21' E 023°48'5 7.2
2017-May-25 18:50N 37°26' E 023°47'2 7.6
2017-May-25 18:30N 37°28' E 023°46'4 7.4
2017-May-25 18:00N 37°32' E 023°45'4 7.1
2017-May-25 17:30N 37°35' E 023°44'3 6.8
2017-May-25 17:00N 37°39' E 023°43'3 6.7
2017-May-25 16:30N 37°42' E 023°41'3 6.6
2017-May-25 16:00N 37°45' E 023°40'3 6.7
2017-May-25 15:30N 37°48' E 023°38'3 6.8
2017-May-25 15:00N 37°51' E 023°37'6 5.5
2017-May-25 13:59N 37°56' E 023°38'0 0.0
2017-May-25 13:29N 37°56' E 023°38'0 0.0
2017-May-25 12:59N 37°56' E 023°38'0 0.0
2017-May-25 12:28N 37°56' E 023°38'0 0.0
2017-May-25 11:58N 37°56' E 023°38'0 0.0
2017-May-25 11:28N 37°56' E 023°38'0 0.0
2017-May-25 10:58N 37°56' E 023°38'0 0.0
2017-May-25 10:25N 37°56' E 023°38'0 0.0
2017-May-25 10:00N 37°56' E 023°38'0 0.0
2017-May-25 09:30N 37°56' E 023°38'0 0.0
2017-May-25 09:00N 37°56' E 023°38'0 0.0
2017-May-25 08:30N 37°56' E 023°38'0 0.0
2017-May-25 06:38N 37°56' E 023°38'0 0.0
2017-May-25 06:30N 37°56' E 023°38'0 0.0
2017-May-25 05:59N 37°56' E 023°38'0 0.0
2017-May-25 05:29N 37°56' E 023°38'0 0.0
2017-May-25 04:59N 37°56' E 023°38'0 0.0
2017-May-25 04:29N 37°56' E 023°38'0 0.0
2017-May-25 04:00N 37°56' E 023°38'1 2.4
2017-May-25 03:30N 37°56' E 023°37'0 0.8
2017-May-25 03:01N 37°55' E 023°37'3 5.5
2017-May-25 02:30N 37°53' E 023°38'4 7.4
2017-May-25 02:00N 37°49' E 023°40'5 9.1
2017-May-25 01:30N 37°45' E 023°42'5 9.5
2017-May-25 01:00N 37°41' E 023°45'5 9.8
2017-May-25 00:30N 37°37' E 023°48'5 9.3
2017-May-25 00:00N 37°32' E 023°49'5 9.2
2017-May-24 23:30N 37°28' E 023°48'5 9.9
2017-May-24 23:00N 37°23' E 023°46'4 9.1
2017-May-24 22:30N 37°19' E 023°44'5 9.0
2017-May-24 21:59N 37°14' E 023°42'4 8.9
2017-May-24 21:30N 37°10' E 023°40'5 9.6
2017-May-24 21:00N 37°10' E 023°34'5 9.7
2017-May-24 20:30N 37°09' E 023°28'5 9.1
2017-May-24 20:00N 37°09' E 023°22'34 2.4
2017-May-24 06:00N 37°30' E 022°48'3 1.1 210 / 11016.610.8 26.312.421.4
2017-May-24 03:05N 37°27' E 022°50'1 8.3
2017-May-24 03:00N 37°27' E 022°51'11 8.3
2017-May-24 01:38N 37°17' E 022°58'14 7.5
2017-May-23 23:46N 37°08' E 023°12'3 9.4
2017-May-23 23:25N 37°09' E 023°16'510.1
2017-May-23 22:55N 37°09' E 023°23'510.1
2017-May-23 22:27N 37°10' E 023°28'5 9.9
2017-May-23 21:54N 37°14' E 023°34'410.3
2017-May-23 21:30N 37°17' E 023°37'7 9.8
2017-May-23 20:45N 37°23' E 023°41'210.0
2017-May-23 20:31N 37°26' E 023°41'5 9.9
2017-May-23 20:00N 37°31' E 023°40'5 9.8
2017-May-23 19:30N 37°36' E 023°39'5 9.8
2017-May-23 19:00N 37°40' E 023°37'5 9.9
2017-May-23 18:30N 37°45' E 023°36'4 8.9
2017-May-23 18:00N 37°49' E 023°33'5 9.5
2017-May-23 17:30N 37°51' E 023°27'5 9.6
2017-May-23 17:01N 37°51' E 023°21'5 9.8
2017-May-23 16:30N 37°52' E 023°15'5 9.8
2017-May-23 16:00N 37°53' E 023°09'5 9.7
2017-May-23 15:30N 37°54' E 023°03'19 7.1
2017-May-23 12:47N 38°06' E 022°44'24 4.1
2017-May-23 07:00N 38°24' E 022°24'75 5.8 120 / 41017.110.8 21.915.220.1
2017-May-22 18:00N 37°48' E 021°00'   300 / 131014.027.0 22.913.720.8
2017-May-18 18:00N 43°00' E 016°24'18 1.5 330 / 61016.227.0 22.014.420.6
2017-May-18 06:00N 43°12' E 016°06'10213.6 190 / 91017.910.8 22.611.220.1
2017-May-17 22:31N 44°04' E 014°05'013.0
2017-May-17 22:30N 44°04' E 014°05'713.2
2017-May-17 22:00N 44°09' E 013°59'713.2
2017-May-17 21:30N 44°15' E 013°54'713.4
2017-May-17 20:59N 44°20' E 013°49'613.3
2017-May-17 20:30N 44°26' E 013°44'713.3
2017-May-17 20:00N 44°31' E 013°39'713.4
2017-May-17 19:30N 44°37' E 013°34'713.2
2017-May-17 19:00N 44°42' E 013°28'713.3
2017-May-17 18:30N 44°48' E 013°23'713.1
2017-May-17 18:00N 44°53' E 013°18'612.9
2017-May-17 17:30N 44°58' E 013°12'713.1
2017-May-17 17:00N 45°03' E 013°05'612.7
2017-May-17 16:30N 45°07' E 012°59'612.5
2017-May-17 16:00N 45°12' E 012°53'612.7
2017-May-17 15:30N 45°16' E 012°46'612.9
2017-May-17 15:00N 45°19' E 012°38'612.8
2017-May-17 14:30N 45°22' E 012°31'8 8.0
2017-May-17 13:30N 45°26' E 012°20'1 1.9
2017-May-17 13:00N 45°26' E 012°19'0 0.0
2017-May-17 12:30N 45°26' E 012°19'0 0.0
2017-May-17 12:00N 45°26' E 012°19'0 0.0
2017-May-17 11:30N 45°26' E 012°19'0 0.0
2017-May-17 11:00N 45°26' E 012°19'0 0.0
2017-May-17 10:30N 45°26' E 012°19'0 0.0
2017-May-17 09:59N 45°26' E 012°19'0 0.0
2017-May-17 09:26N 45°26' E 012°19'0 0.0
2017-May-17 08:59N 45°26' E 012°19'0 0.0
2017-May-17 08:29N 45°26' E 012°19'0 0.0
2017-May-17 07:58N 45°26' E 012°19'0 0.0
2017-May-17 07:28N 45°26' E 012°19'0 0.0
2017-May-17 06:55N 45°26' E 012°19'0 0.0
2017-May-17 06:28N 45°26' E 012°19'0 0.0
2017-May-17 05:58N 45°26' E 012°19'0 0.0
2017-May-17 05:30N 45°26' E 012°19'0 0.0
2017-May-17 05:00N 45°26' E 012°19'0 0.0
2017-May-17 04:30N 45°26' E 012°19'0 0.0
2017-May-17 04:00N 45°26' E 012°19'0 0.0
2017-May-17 03:29N 45°26' E 012°19'0 0.0
2017-May-17 02:59N 45°26' E 012°19'0 0.0
2017-May-17 02:29N 45°26' E 012°19'0 0.0
2017-May-17 01:59N 45°26' E 012°19'0 0.0
2017-May-17 01:29N 45°26' E 012°19'0 0.0
2017-May-17 00:58N 45°26' E 012°19'0 0.0
2017-May-17 00:28N 45°26' E 012°19'0 0.0
2017-May-16 23:58N 45°26' E 012°19'0 0.0
2017-May-16 23:28N 45°26' E 012°19'0 0.0
2017-May-16 22:58N 45°26' E 012°19'0 0.0
2017-May-16 22:30N 45°26' E 012°19'0 0.0
2017-May-16 22:00N 45°26' E 012°19'0 0.0
2017-May-16 21:30N 45°26' E 012°19'0 0.0
2017-May-16 21:00N 45°26' E 012°19'0 0.0
2017-May-16 20:29N 45°26' E 012°19'0 0.0
2017-May-16 19:59N 45°26' E 012°19'0 0.0
2017-May-16 19:29N 45°26' E 012°19'0 0.0
2017-May-16 18:59N 45°26' E 012°19'0 0.0
2017-May-16 18:29N 45°26' E 012°19'0 0.0
2017-May-16 17:58N 45°26' E 012°19'0 0.0
2017-May-16 17:28N 45°26' E 012°19'0 0.0
2017-May-16 16:58N 45°26' E 012°19'0 0.0
2017-May-16 16:28N 45°26' E 012°19'0 0.0
2017-May-16 16:01N 45°26' E 012°19'0 0.0
2017-May-16 15:30N 45°26' E 012°19'0 0.0
2017-May-16 15:00N 45°26' E 012°19'0 0.0
2017-May-16 14:30N 45°26' E 012°19'0 0.0
2017-May-16 13:29N 45°26' E 012°19'0 0.0
2017-May-16 12:59N 45°26' E 012°19'0 0.0
2017-May-16 12:29N 45°26' E 012°19'0 0.0
2017-May-16 11:59N 45°26' E 012°19'0 0.0
2017-May-16 11:29N 45°26' E 012°19'0 0.0
2017-May-16 10:58N 45°26' E 012°19'0 0.0
2017-May-16 10:28N 45°26' E 012°19'0 0.0
2017-May-16 09:58N 45°26' E 012°19'0 0.0
2017-May-16 09:28N 45°26' E 012°19'0 0.0
2017-May-16 09:00N 45°26' E 012°19'2127.1
2017-May-16 09:00N 45°24' E 012°18'2 4.0 330 / 41028.227.0 22.218.921.4
2017-May-16 08:30N 45°26' E 012°19'0 0.0
2017-May-16 08:00N 45°26' E 012°19'0 0.0
2017-May-16 07:30N 45°26' E 012°19'0 0.0
2017-May-16 07:00N 45°26' E 012°19'0 0.0
2017-May-16 06:29N 45°26' E 012°19'0 0.0
2017-May-16 05:59N 45°26' E 012°19'0 0.0
2017-May-16 05:29N 45°26' E 012°19'0 0.0
2017-May-16 05:00N 45°26' E 012°19'1 2.8
2017-May-16 04:30N 45°26' E 012°21'3 5.8
2017-May-16 04:00N 45°26' E 012°25'5 9.4
2017-May-16 03:30N 45°23' E 012°31'3 5.3
2017-May-16 03:01N 45°21' E 012°32'3 6.0
2017-May-16 02:30N 45°18' E 012°32'3 6.2
2017-May-16 02:00N 45°15' E 012°35'3 6.4
2017-May-16 01:30N 45°13' E 012°38'3 6.1
2017-May-16 01:00N 45°11' E 012°41'3 6.3
2017-May-16 00:30N 45°09' E 012°45'  
Track history (hours):
 
Tides and Currents Weather Stations Pressure Air Temp Water Temp Dewpoint Dewpoint Depression Visibility Wind Speed Wind Dir Waves Ship Positions

Seabourn Legend

Operator: Cunard Seabourn

Last reported at 2017-May-26 00:26 UTC. Time now 2017-May-26 16:46 UTC.
Position N 36°58' E 023°22'.

Length 135 m; draft 5.6 m.

Type: Passenger vessel. MMSI: 311085000.

Date/timePositionNaut miles runAvg speedWind from/ knotsBaromVisibWave heightAir tempDewpointWater temp
2017-May-26 00:26N 36°58' E 023°22'3 6.5
2017-May-26 00:00N 37°00' E 023°24'13 6.7
2017-May-25 22:03N 37°06' E 023°39'0 6.8
2017-May-25 22:00N 37°06' E 023°39'3 6.9
2017-May-25 21:30N 37°09' E 023°42'3 6.7
2017-May-25 21:00N 37°11' E 023°45'3 7.0
2017-May-25 20:30N 37°14' E 023°48'6 6.9
2017-May-25 19:41N 37°20' E 023°48'2 7.4
2017-May-25 19:27N 37°21' E 023°48'5 7.2
2017-May-25 18:50N 37°26' E 023°47'2 7.6
2017-May-25 18:30N 37°28' E 023°46'4 7.4
2017-May-25 18:00N 37°32' E 023°45'4 7.1
2017-May-25 17:30N 37°35' E 023°44'3 6.8
2017-May-25 17:00N 37°39' E 023°43'3 6.7
2017-May-25 16:30N 37°42' E 023°41'3 6.6
2017-May-25 16:00N 37°45' E 023°40'3 6.7
2017-May-25 15:30N 37°48' E 023°38'3 6.8
2017-May-25 15:00N 37°51' E 023°37'6 5.5
2017-May-25 13:59N 37°56' E 023°38'0 0.0
2017-May-25 13:29N 37°56' E 023°38'0 0.0
2017-May-25 12:59N 37°56' E 023°38'0 0.0
2017-May-25 12:28N 37°56' E 023°38'0 0.0
2017-May-25 11:58N 37°56' E 023°38'0 0.0
2017-May-25 11:28N 37°56' E 023°38'0 0.0
2017-May-25 10:58N 37°56' E 023°38'0 0.0
2017-May-25 10:25N 37°56' E 023°38'0 0.0
2017-May-25 10:00N 37°56' E 023°38'0 0.0
2017-May-25 09:30N 37°56' E 023°38'0 0.0
2017-May-25 09:00N 37°56' E 023°38'0 0.0
2017-May-25 08:30N 37°56' E 023°38'0 0.0
2017-May-25 06:38N 37°56' E 023°38'0 0.0
2017-May-25 06:30N 37°56' E 023°38'0 0.0
2017-May-25 05:59N 37°56' E 023°38'0 0.0
2017-May-25 05:29N 37°56' E 023°38'0 0.0
2017-May-25 04:59N 37°56' E 023°38'0 0.0
2017-May-25 04:29N 37°56' E 023°38'0 0.0
2017-May-25 04:00N 37°56' E 023°38'1 2.4
2017-May-25 03:30N 37°56' E 023°37'0 0.8
2017-May-25 03:01N 37°55' E 023°37'3 5.5
2017-May-25 02:30N 37°53' E 023°38'4 7.4
2017-May-25 02:00N 37°49' E 023°40'5 9.1
2017-May-25 01:30N 37°45' E 023°42'5 9.5
2017-May-25 01:00N 37°41' E 023°45'5 9.8
2017-May-25 00:30N 37°37' E 023°48'5 9.3
2017-May-25 00:00N 37°32' E 023°49'5 9.2
2017-May-24 23:30N 37°28' E 023°48'5 9.9
2017-May-24 23:00N 37°23' E 023°46'4 9.1
2017-May-24 22:30N 37°19' E 023°44'5 9.0
2017-May-24 21:59N 37°14' E 023°42'4 8.9
2017-May-24 21:30N 37°10' E 023°40'5 9.6
2017-May-24 21:00N 37°10' E 023°34'5 9.7
2017-May-24 20:30N 37°09' E 023°28'5 9.1
2017-May-24 20:00N 37°09' E 023°22'34 2.4
2017-May-24 06:00N 37°30' E 022°48'3 1.1 210 / 11016.610.8 26.312.421.4
2017-May-24 03:05N 37°27' E 022°50'1 8.3
2017-May-24 03:00N 37°27' E 022°51'11 8.3
2017-May-24 01:38N 37°17' E 022°58'14 7.5
2017-May-23 23:46N 37°08' E 023°12'3 9.4
2017-May-23 23:25N 37°09' E 023°16'510.1
2017-May-23 22:55N 37°09' E 023°23'510.1
2017-May-23 22:27N 37°10' E 023°28'5 9.9
2017-May-23 21:54N 37°14' E 023°34'410.3
2017-May-23 21:30N 37°17' E 023°37'7 9.8
2017-May-23 20:45N 37°23' E 023°41'210.0
2017-May-23 20:31N 37°26' E 023°41'5 9.9
2017-May-23 20:00N 37°31' E 023°40'5 9.8
2017-May-23 19:30N 37°36' E 023°39'5 9.8
2017-May-23 19:00N 37°40' E 023°37'5 9.9
2017-May-23 18:30N 37°45' E 023°36'4 8.9
2017-May-23 18:00N 37°49' E 023°33'5 9.5
2017-May-23 17:30N 37°51' E 023°27'5 9.6
2017-May-23 17:01N 37°51' E 023°21'5 9.8
2017-May-23 16:30N 37°52' E 023°15'5 9.8
2017-May-23 16:00N 37°53' E 023°09'5 9.7
2017-May-23 15:30N 37°54' E 023°03'19 7.1
2017-May-23 12:47N 38°06' E 022°44'24 4.1
2017-May-23 07:00N 38°24' E 022°24'75 5.8 120 / 41017.110.8 21.915.220.1
2017-May-22 18:00N 37°48' E 021°00'   300 / 131014.027.0 22.913.720.8
2017-May-18 18:00N 43°00' E 016°24'18 1.5 330 / 61016.227.0 22.014.420.6
2017-May-18 06:00N 43°12' E 016°06'10213.6 190 / 91017.910.8 22.611.220.1
2017-May-17 22:31N 44°04' E 014°05'013.0
2017-May-17 22:30N 44°04' E 014°05'713.2
2017-May-17 22:00N 44°09' E 013°59'713.2
2017-May-17 21:30N 44°15' E 013°54'713.4
2017-May-17 20:59N 44°20' E 013°49'613.3
2017-May-17 20:30N 44°26' E 013°44'713.3
2017-May-17 20:00N 44°31' E 013°39'713.4
2017-May-17 19:30N 44°37' E 013°34'713.2
2017-May-17 19:00N 44°42' E 013°28'713.3
2017-May-17 18:30N 44°48' E 013°23'713.1
2017-May-17 18:00N 44°53' E 013°18'612.9
2017-May-17 17:30N 44°58' E 013°12'713.1
2017-May-17 17:00N 45°03' E 013°05'612.7
2017-May-17 16:30N 45°07' E 012°59'612.5
2017-May-17 16:00N 45°12' E 012°53'612.7
2017-May-17 15:30N 45°16' E 012°46'612.9
2017-May-17 15:00N 45°19' E 012°38'612.8
2017-May-17 14:30N 45°22' E 012°31'8 8.0
2017-May-17 13:30N 45°26' E 012°20'1 1.9
2017-May-17 13:00N 45°26' E 012°19'0 0.0
2017-May-17 12:30N 45°26' E 012°19'0 0.0
2017-May-17 12:00N 45°26' E 012°19'0 0.0
2017-May-17 11:30N 45°26' E 012°19'0 0.0
2017-May-17 11:00N 45°26' E 012°19'0 0.0
2017-May-17 10:30N 45°26' E 012°19'0 0.0
2017-May-17 09:59N 45°26' E 012°19'0 0.0
2017-May-17 09:26N 45°26' E 012°19'0 0.0
2017-May-17 08:59N 45°26' E 012°19'0 0.0
2017-May-17 08:29N 45°26' E 012°19'0 0.0
2017-May-17 07:58N 45°26' E 012°19'0 0.0
2017-May-17 07:28N 45°26' E 012°19'0 0.0
2017-May-17 06:55N 45°26' E 012°19'0 0.0
2017-May-17 06:28N 45°26' E 012°19'0 0.0
2017-May-17 05:58N 45°26' E 012°19'0 0.0
2017-May-17 05:30N 45°26' E 012°19'0 0.0
2017-May-17 05:00N 45°26' E 012°19'0 0.0
2017-May-17 04:30N 45°26' E 012°19'0 0.0
2017-May-17 04:00N 45°26' E 012°19'0 0.0
2017-May-17 03:29N 45°26' E 012°19'0 0.0
2017-May-17 02:59N 45°26' E 012°19'0 0.0
2017-May-17 02:29N 45°26' E 012°19'0 0.0
2017-May-17 01:59N 45°26' E 012°19'0 0.0
2017-May-17 01:29N 45°26' E 012°19'0 0.0
2017-May-17 00:58N 45°26' E 012°19'0 0.0
2017-May-17 00:28N 45°26' E 012°19'0 0.0
2017-May-16 23:58N 45°26' E 012°19'0 0.0
2017-May-16 23:28N 45°26' E 012°19'0 0.0
2017-May-16 22:58N 45°26' E 012°19'0 0.0
2017-May-16 22:30N 45°26' E 012°19'0 0.0
2017-May-16 22:00N 45°26' E 012°19'0 0.0
2017-May-16 21:30N 45°26' E 012°19'0 0.0
2017-May-16 21:00N 45°26' E 012°19'0 0.0
2017-May-16 20:29N 45°26' E 012°19'0 0.0
2017-May-16 19:59N 45°26' E 012°19'0 0.0
2017-May-16 19:29N 45°26' E 012°19'0 0.0
2017-May-16 18:59N 45°26' E 012°19'0 0.0
2017-May-16 18:29N 45°26' E 012°19'0 0.0
2017-May-16 17:58N 45°26' E 012°19'0 0.0
2017-May-16 17:28N 45°26' E 012°19'0 0.0
2017-May-16 16:58N 45°26' E 012°19'0 0.0
2017-May-16 16:28N 45°26' E 012°19'0 0.0
2017-May-16 16:01N 45°26' E 012°19'0 0.0
2017-May-16 15:30N 45°26' E 012°19'0 0.0
2017-May-16 15:00N 45°26' E 012°19'0 0.0
2017-May-16 14:30N 45°26' E 012°19'0 0.0
2017-May-16 13:29N 45°26' E 012°19'0 0.0
2017-May-16 12:59N 45°26' E 012°19'0 0.0
2017-May-16 12:29N 45°26' E 012°19'0 0.0
2017-May-16 11:59N 45°26' E 012°19'0 0.0
2017-May-16 11:29N 45°26' E 012°19'0 0.0
2017-May-16 10:58N 45°26' E 012°19'0 0.0
2017-May-16 10:28N 45°26' E 012°19'0 0.0
2017-May-16 09:58N 45°26' E 012°19'0 0.0
2017-May-16 09:28N 45°26' E 012°19'0 0.0
2017-May-16 09:00N 45°26' E 012°19'2127.1
2017-May-16 09:00N 45°24' E 012°18'2 4.0 330 / 41028.227.0 22.218.921.4
2017-May-16 08:30N 45°26' E 012°19'0 0.0
2017-May-16 08:00N 45°26' E 012°19'0 0.0
2017-May-16 07:30N 45°26' E 012°19'0 0.0
2017-May-16 07:00N 45°26' E 012°19'0 0.0
2017-May-16 06:29N 45°26' E 012°19'0 0.0
2017-May-16 05:59N 45°26' E 012°19'0 0.0
2017-May-16 05:29N 45°26' E 012°19'0 0.0
2017-May-16 05:00N 45°26' E 012°19'1 2.8
2017-May-16 04:30N 45°26' E 012°21'3 5.8
2017-May-16 04:00N 45°26' E 012°25'5 9.4
2017-May-16 03:30N 45°23' E 012°31'3 5.3
2017-May-16 03:01N 45°21' E 012°32'3 6.0
2017-May-16 02:30N 45°18' E 012°32'3 6.2
2017-May-16 02:00N 45°15' E 012°35'3 6.4
2017-May-16 01:30N 45°13' E 012°38'3 6.1
2017-May-16 01:00N 45°11' E 012°41'3 6.3
2017-May-16 00:30N 45°09' E 012°45'  

Dump ship's entire track history